Time;durP1;ratioP1;P1;durP2;ratioP2;P2;SDS_P1;SDS_P2;PMS_P1;PMS_P2;Temp;Humidity;BMP_temperature;BMP_pressure;BME280_temperature;BME280_humidity;BME280_pressure;Samples;Min_cycle;Max_cycle;Signal;HPM_P1;HPM_P2
2022/09/25 00:00:53;;;;;;;7.53;1.67;;;14.20;99.90;;;;;;4993481;28;20212;-80
2022/09/25 00:03:19;;;;;;;4.63;1.50;;;14.20;99.90;;;;;;4993552;28;20687;-80
2022/09/25 00:05:45;;;;;;;8.40;1.70;;;14.10;99.90;;;;;;4993571;28;20239;-81
2022/09/25 00:08:11;;;;;;;7.35;1.65;;;14.20;99.90;;;;;;4993174;28;20181;-79
2022/09/25 00:10:49;;;;;;;7.28;1.88;;;14.30;99.90;;;;;;4992981;28;20632;-81
2022/09/25 00:13:20;;;;;;;8.63;1.60;;;14.40;99.90;;;;;;4993248;28;20196;-81
2022/09/25 00:15:56;;;;;;;3.97;1.50;;;14.30;99.90;;;;;;4992901;28;20575;-80
2022/09/25 00:21:13;;;;;;;8.70;2.22;;;14.10;99.90;;;;;;4993344;28;20264;-80
2022/09/25 00:23:40;;;;;;;5.22;1.75;;;13.90;99.90;;;;;;4993299;28;20236;-81
2022/09/25 00:26:07;;;;;;;13.60;1.65;;;13.90;99.90;;;;;;4992690;28;20244;-81
2022/09/25 00:28:35;;;;;;;9.75;1.30;;;13.90;99.90;;;;;;4992735;28;20181;-80
2022/09/25 00:31:02;;;;;;;6.32;1.63;;;13.90;99.90;;;;;;4993146;28;20169;-80
2022/09/25 00:33:27;;;;;;;9.05;1.50;;;13.80;99.90;;;;;;4993036;28;20165;-80
2022/09/25 00:35:53;;;;;;;12.18;1.60;;;13.70;99.90;;;;;;4992917;28;20189;-79
2022/09/25 00:38:19;;;;;;;5.93;1.80;;;13.80;99.90;;;;;;4992680;28;20210;-80
2022/09/25 00:40:44;;;;;;;8.65;1.48;;;13.90;99.90;;;;;;5007759;28;20172;-81
2022/09/25 00:43:31;;;;;;;4.65;1.27;;;13.80;99.90;;;;;;4992697;28;20245;-82
2022/09/25 00:45:57;;;;;;;5.22;1.25;;;13.90;99.90;;;;;;4992913;28;20272;-79
2022/09/25 00:48:23;;;;;;;7.05;1.40;;;13.80;99.90;;;;;;4992780;28;20655;-79
2022/09/25 00:50:54;;;;;;;2.03;1.40;;;13.60;99.90;;;;;;4992998;28;20166;-81
2022/09/25 00:53:26;;;;;;;9.75;1.77;;;13.60;99.90;;;;;;4992601;28;20257;-80
2022/09/25 00:55:52;;;;;;;7.63;1.55;;;13.70;99.90;;;;;;4995827;28;20545;-80
2022/09/25 00:58:22;;;;;;;5.03;1.20;;;13.70;99.90;;;;;;4996481;28;20262;-81
2022/09/25 01:00:49;;;;;;;1.77;1.23;;;13.60;99.90;;;;;;4996882;28;20238;-83
2022/09/25 01:03:16;;;;;;;12.88;1.52;;;13.70;99.90;;;;;;4996808;28;20170;-80
2022/09/25 01:05:44;;;;;;;4.70;1.63;;;13.70;99.90;;;;;;4996774;28;20659;-80
2022/09/25 01:08:14;;;;;;;4.63;1.15;;;13.70;99.90;;;;;;5001966;28;20169;-79
2022/09/25 01:10:40;;;;;;;5.20;1.30;;;13.90;99.90;;;;;;5002617;28;20162;-80
2022/09/25 01:13:07;;;;;;;3.42;1.10;;;13.80;99.90;;;;;;4996579;28;20269;-81
2022/09/25 01:15:39;;;;;;;4.03;1.70;;;13.90;99.90;;;;;;4995148;28;20276;-79
2022/09/25 01:18:19;;;;;;;9.77;1.30;;;13.90;99.90;;;;;;4996104;28;20236;-80
2022/09/25 01:21:07;;;;;;;8.75;1.00;;;13.90;99.90;;;;;;4995956;28;20520;-80
2022/09/25 01:24:04;;;;;;;1.88;1.02;;;13.60;99.90;;;;;;4995769;28;20177;-80
2022/09/25 01:26:49;;;;;;;12.90;1.60;;;13.60;99.90;;;;;;4996495;28;20535;-79
2022/09/25 01:29:36;;;;;;;5.18;1.05;;;13.60;99.90;;;;;;4996133;28;20619;-79
2022/09/25 01:32:15;;;;;;;6.75;1.10;;;13.70;99.90;;;;;;4996035;28;20188;-80
2022/09/25 01:34:50;;;;;;;10.60;2.42;;;13.70;99.90;;;;;;4995968;28;20262;-80
2022/09/25 01:37:36;;;;;;;6.10;1.67;;;13.60;99.90;;;;;;4995997;28;20226;-80
2022/09/25 01:40:13;;;;;;;5.13;1.35;;;13.50;99.90;;;;;;4996175;28;20731;-80
2022/09/25 01:42:49;;;;;;;4.70;1.38;;;13.60;99.90;;;;;;4995962;28;20533;-80
2022/09/25 01:45:24;;;;;;;9.55;1.63;;;13.60;99.90;;;;;;4995808;28;20189;-80
2022/09/25 01:47:51;;;;;;;7.15;1.55;;;13.50;99.90;;;;;;4995781;28;20172;-79
2022/09/25 01:50:35;;;;;;;12.15;1.65;;;13.60;99.90;;;;;;4995837;28;20201;-82
2022/09/25 01:53:06;;;;;;;9.48;1.35;;;13.50;99.90;;;;;;4995537;28;20197;-80
2022/09/25 01:55:38;;;;;;;5.10;1.38;;;13.30;99.90;;;;;;4995545;28;20276;-84
2022/09/25 01:58:10;;;;;;;4.22;1.45;;;13.30;99.90;;;;;;4995675;28;20240;-79
2022/09/25 02:00:44;;;;;;;12.85;1.60;;;13.40;99.90;;;;;;4995593;28;20170;-79
2022/09/25 02:03:17;;;;;;;5.03;1.42;;;13.40;99.90;;;;;;4995237;28;20226;-80
2022/09/25 02:05:51;;;;;;;7.80;1.58;;;13.10;99.90;;;;;;4995008;28;20162;-80
2022/09/25 02:08:25;;;;;;;5.45;1.38;;;13.20;99.90;;;;;;4994134;28;20522;-80
2022/09/25 02:10:55;;;;;;;12.45;1.60;;;13.20;99.90;;;;;;4995770;28;20169;-80
2022/09/25 02:13:25;;;;;;;8.88;1.40;;;13.20;99.90;;;;;;4995495;28;20177;-81
2022/09/25 02:16:04;;;;;;;1.50;1.10;;;13.10;99.90;;;;;;4995287;28;20176;-80
2022/09/25 02:21:42;;;;;;;7.90;1.42;;;12.90;99.90;;;;;;4995591;28;20562;-80
2022/09/25 02:24:23;;;;;;;8.85;1.45;;;12.90;99.90;;;;;;4995543;28;20192;-79
2022/09/25 02:26:50;;;;;;;11.98;1.52;;;12.80;99.90;;;;;;4995167;28;20170;-79
2022/09/25 02:29:18;;;;;;;5.60;0.95;;;12.80;99.90;;;;;;4995072;28;20158;-80
2022/09/25 02:31:47;;;;;;;10.10;1.60;;;12.90;99.90;;;;;;4995180;28;20248;-81
2022/09/25 02:34:12;;;;;;;9.38;1.70;;;12.90;99.90;;;;;;4995282;28;20192;-82
2022/09/25 02:36:38;;;;;;;9.82;1.40;;;13.00;99.90;;;;;;5010284;28;20670;-80
2022/09/25 02:39:06;;;;;;;6.75;2.03;;;13.00;99.90;;;;;;4995275;28;20173;-80
2022/09/25 02:41:47;;;;;;;5.47;1.48;;;13.00;99.90;;;;;;4994923;28;20260;-80
2022/09/25 02:44:42;;;;;;;15.60;2.00;;;12.80;99.90;;;;;;4994830;28;20197;-81
2022/09/25 02:47:23;;;;;;;8.77;1.85;;;12.90;99.90;;;;;;4995188;28;20194;-82
2022/09/25 02:49:56;;;;;;;11.13;1.85;;;12.80;99.90;;;;;;4995217;28;20173;-82
2022/09/25 02:52:43;;;;;;;10.88;1.52;;;13.00;99.90;;;;;;4995132;28;20166;-79
2022/09/25 02:55:18;;;;;;;11.60;1.60;;;13.10;99.90;;;;;;4995053;28;20189;-79
2022/09/25 02:57:47;;;;;;;6.70;1.65;;;12.80;99.90;;;;;;4995062;28;20204;-81
2022/09/25 03:00:13;;;;;;;7.18;1.75;;;12.90;99.90;;;;;;4994681;28;20195;-80
2022/09/25 03:02:42;;;;;;;6.55;1.60;;;12.80;99.90;;;;;;4994441;28;20177;-81
2022/09/25 03:05:10;;;;;;;7.35;1.20;;;12.90;99.90;;;;;;4994350;28;20185;-83
2022/09/25 03:08:36;;;;;;;6.78;1.20;;;12.80;99.90;;;;;;4994316;28;20533;-80
2022/09/25 03:10:22;;;;;;;5.55;1.50;;;12.90;99.90;;;;;;4994472;28;20185;-80
2022/09/25 03:12:48;;;;;;;13.85;2.72;;;12.70;99.90;;;;;;4995284;28;20646;-82
2022/09/25 03:15:13;;;;;;;13.02;1.70;;;12.70;99.90;;;;;;4994173;28;20189;-80
2022/09/25 03:17:39;;;;;;;13.07;1.90;;;12.50;99.90;;;;;;4993404;28;20556;-81
2022/09/25 03:20:06;;;;;;;6.72;1.13;;;12.40;99.90;;;;;;4993168;28;20180;-80
2022/09/25 03:22:32;;;;;;;8.65;1.58;;;12.40;99.90;;;;;;4994016;28;20223;-80
2022/09/25 03:24:57;;;;;;;10.75;1.98;;;12.20;99.90;;;;;;4994021;28;20845;-79
2022/09/25 03:27:24;;;;;;;8.95;1.70;;;12.20;99.90;;;;;;5012219;28;20172;-80
2022/09/25 03:29:49;;;;;;;7.22;1.83;;;12.40;99.90;;;;;;4995039;28;20183;-84
2022/09/25 03:32:15;;;;;;;7.90;1.50;;;12.30;99.90;;;;;;5009290;28;20636;-80
2022/09/25 03:34:40;;;;;;;11.25;1.55;;;12.30;99.90;;;;;;4994172;28;20178;-80
2022/09/25 03:37:06;;;;;;;9.27;1.70;;;12.30;99.90;;;;;;4993806;28;20264;-78
2022/09/25 03:39:31;;;;;;;5.88;1.52;;;12.30;99.90;;;;;;4992797;28;20207;-79
2022/09/25 03:41:57;;;;;;;1.45;1.33;;;12.20;99.90;;;;;;4993929;28;20186;-78
2022/09/25 03:44:22;;;;;;;8.65;1.30;;;12.10;99.90;;;;;;4993650;28;20659;-78
2022/09/25 03:46:48;;;;;;;12.55;2.25;;;12.30;99.90;;;;;;4993573;28;20632;-80
2022/09/25 03:49:13;;;;;;;7.13;1.73;;;12.20;99.90;;;;;;4993739;28;20200;-78
2022/09/25 03:51:40;;;;;;;7.65;1.73;;;12.20;99.90;;;;;;4993939;28;20165;-79
2022/09/25 03:54:06;;;;;;;8.75;1.90;;;12.10;99.90;;;;;;4993852;28;20185;-78
2022/09/25 03:56:32;;;;;;;7.13;2.08;;;12.00;99.90;;;;;;4992374;28;20622;-79
2022/09/25 03:58:58;;;;;;;13.93;1.92;;;12.10;99.90;;;;;;5009255;28;20196;-80
2022/09/25 04:01:25;;;;;;;5.80;1.58;;;12.30;99.90;;;;;;4993639;28;20579;-78
2022/09/25 04:03:51;;;;;;;2.38;1.50;;;12.30;99.90;;;;;;4993673;28;20189;-79
2022/09/25 04:06:20;;;;;;;16.95;2.13;;;12.00;99.90;;;;;;4993215;28;20204;-79
2022/09/25 04:08:47;;;;;;;8.18;2.08;;;11.90;99.90;;;;;;4993424;28;20650;-79
2022/09/25 04:11:14;;;;;;;7.78;1.95;;;11.90;99.90;;;;;;4993495;28;20177;-80
2022/09/25 04:13:40;;;;;;;22.45;2.35;;;11.90;99.90;;;;;;4993539;28;20222;-79
2022/09/25 04:16:07;;;;;;;13.20;2.13;;;11.90;99.90;;;;;;4993152;28;20253;-80
2022/09/25 04:18:33;;;;;;;7.03;2.08;;;11.90;99.90;;;;;;4992828;28;20219;-79
2022/09/25 04:21:04;;;;;;;4.85;2.20;;;11.90;99.90;;;;;;4993321;28;20173;-82
2022/09/25 04:23:30;;;;;;;9.05;1.92;;;11.90;99.90;;;;;;4994455;28;20644;-78
2022/09/25 04:25:56;;;;;;;11.60;2.45;;;11.90;99.90;;;;;;4993501;28;20173;-78
2022/09/25 04:28:22;;;;;;;14.90;3.03;;;11.80;99.90;;;;;;4992902;28;20174;-80
2022/09/25 04:30:48;;;;;;;11.75;2.47;;;11.90;99.90;;;;;;4993392;28;20601;-79
2022/09/25 04:35:59;;;;;;;9.45;2.88;;;11.90;99.90;;;;;;4993145;28;20289;-78
2022/09/25 04:38:25;;;;;;;15.05;3.40;;;11.70;99.90;;;;;;4992712;28;20577;-79
2022/09/25 04:40:50;;;;;;;12.02;2.83;;;11.60;99.90;;;;;;4993075;28;20169;-79
2022/09/25 04:43:17;;;;;;;10.38;3.25;;;11.70;99.90;;;;;;4992861;28;20177;-80
2022/09/25 04:45:42;;;;;;;10.60;3.33;;;11.70;99.90;;;;;;4991762;28;20193;-79
2022/09/25 04:48:08;;;;;;;9.55;2.40;;;11.80;99.90;;;;;;4992839;28;20526;-80
2022/09/25 04:50:34;;;;;;;6.60;2.53;;;11.80;99.90;;;;;;4993091;28;20616;-79
2022/09/25 04:53:01;;;;;;;7.70;3.13;;;11.90;99.90;;;;;;4993082;28;20651;-79
2022/09/25 04:55:27;;;;;;;11.90;3.58;;;11.90;99.90;;;;;;4992998;28;20185;-79
2022/09/25 04:58:01;;;;;;;8.20;3.13;;;12.00;99.90;;;;;;4992870;28;20216;-79
2022/09/25 05:00:30;;;;;;;9.88;3.47;;;11.90;99.90;;;;;;4993009;28;20173;-80
2022/09/25 05:02:56;;;;;;;11.10;3.15;;;12.00;99.90;;;;;;4992582;28;20197;-79
2022/09/25 05:05:29;;;;;;;6.63;4.45;;;12.10;99.90;;;;;;4992786;28;20245;-79
2022/09/25 05:07:56;;;;;;;9.00;4.15;;;12.20;99.90;;;;;;4992292;28;20248;-85
2022/09/25 05:10:26;;;;;;;6.97;3.67;;;12.40;99.90;;;;;;4992722;28;20173;-79
2022/09/25 05:12:56;;;;;;;7.57;4.28;;;12.20;99.90;;;;;;4992882;28;20176;-78
2022/09/25 05:15:22;;;;;;;17.58;4.25;;;12.10;99.90;;;;;;4992404;28;20240;-78
2022/09/25 05:17:47;;;;;;;9.15;4.38;;;12.20;99.90;;;;;;4992628;28;20205;-78
2022/09/25 05:20:13;;;;;;;11.05;4.85;;;12.40;99.90;;;;;;4992355;28;20243;-78
2022/09/25 05:22:39;;;;;;;12.60;4.00;;;12.30;99.90;;;;;;4992638;28;20687;-77
2022/09/25 05:25:05;;;;;;;8.05;4.30;;;12.20;99.90;;;;;;4992271;28;20228;-79
2022/09/25 05:27:33;;;;;;;10.52;4.32;;;12.20;99.90;;;;;;4992620;28;20173;-79
2022/09/25 05:29:59;;;;;;;9.48;4.97;;;12.10;99.90;;;;;;4992331;28;20529;-78
2022/09/25 05:32:25;;;;;;;17.85;4.72;;;12.00;99.90;;;;;;4991996;28;20193;-79
2022/09/25 05:34:50;;;;;;;17.50;4.80;;;12.10;99.90;;;;;;4992166;28;20667;-78
2022/09/25 05:37:16;;;;;;;5.57;4.07;;;12.30;99.90;;;;;;4992187;28;20212;-79
2022/09/25 05:39:42;;;;;;;5.68;4.35;;;12.30;99.90;;;;;;4992536;28;20173;-80
2022/09/25 05:42:07;;;;;;;9.45;4.45;;;12.10;99.90;;;;;;4997842;28;20179;-79
2022/09/25 05:44:33;;;;;;;18.25;5.55;;;12.00;99.90;;;;;;5020198;28;20169;-82
2022/09/25 05:46:59;;;;;;;11.38;4.85;;;12.10;99.90;;;;;;5004764;28;20252;-77
2022/09/25 05:49:24;;;;;;;7.22;4.60;;;12.10;99.90;;;;;;5011788;28;20255;-79
2022/09/25 05:51:50;;;;;;;8.45;4.90;;;12.00;99.90;;;;;;4995921;28;20173;-79
2022/09/25 05:54:15;;;;;;;9.73;4.60;;;11.90;99.90;;;;;;4996599;28;20204;-79
2022/09/25 05:56:41;;;;;;;5.97;3.78;;;12.00;99.90;;;;;;4995819;28;20176;-79
2022/09/25 05:59:06;;;;;;;15.43;4.63;;;12.00;99.90;;;;;;4996033;28;20165;-81
2022/09/25 06:01:32;;;;;;;11.00;4.60;;;11.90;99.90;;;;;;4996003;28;20248;-80
2022/09/25 06:03:57;;;;;;;10.30;3.90;;;12.00;99.90;;;;;;4996063;28;20189;-80
2022/09/25 06:06:23;;;;;;;7.55;4.10;;;12.00;99.90;;;;;;4995975;28;20173;-80
2022/09/25 06:08:49;;;;;;;5.43;3.63;;;11.90;99.90;;;;;;4995987;28;20173;-82
2022/09/25 06:11:14;;;;;;;6.35;4.05;;;12.00;99.90;;;;;;4995364;28;20520;-80
2022/09/25 06:13:44;;;;;;;9.95;3.45;;;12.00;99.90;;;;;;4995372;28;20607;-80
2022/09/25 06:16:18;;;;;;;10.13;3.90;;;12.10;99.90;;;;;;4995281;28;20237;-82
2022/09/25 06:18:44;;;;;;;5.22;3.63;;;12.10;99.90;;;;;;4995558;28;20204;-79
2022/09/25 06:21:10;;;;;;;6.03;4.22;;;12.00;99.90;;;;;;4995229;28;20698;-80
2022/09/25 06:23:36;;;;;;;9.63;4.53;;;12.10;99.90;;;;;;4995264;28;20173;-80
2022/09/25 06:26:03;;;;;;;8.05;4.93;;;12.20;99.90;;;;;;4995684;28;20161;-80
2022/09/25 06:28:29;;;;;;;13.40;4.20;;;12.40;99.90;;;;;;4995205;28;20183;-81
2022/09/25 06:30:58;;;;;;;12.98;4.63;;;12.30;99.90;;;;;;5010634;28;20525;-80
2022/09/25 06:33:23;;;;;;;10.35;4.18;;;12.30;99.90;;;;;;4994751;28;20170;-79
2022/09/25 06:35:49;;;;;;;6.05;4.90;;;12.40;99.90;;;;;;4995043;28;20284;-79
2022/09/25 06:38:15;;;;;;;10.13;3.88;;;12.50;99.90;;;;;;4994877;28;20259;-79
2022/09/25 06:40:41;;;;;;;13.23;4.70;;;12.50;99.90;;;;;;4995119;28;20534;-80
2022/09/25 06:43:12;;;;;;;9.85;5.55;;;12.70;99.90;;;;;;4995131;28;20639;-79
2022/09/25 06:45:38;;;;;;;6.05;4.53;;;12.70;99.90;;;;;;4995064;28;20189;-80
2022/09/25 06:48:09;;;;;;;10.35;4.25;;;12.90;99.90;;;;;;4995088;28;20192;-82
2022/09/25 06:50:45;;;;;;;5.18;4.65;;;12.90;99.90;;;;;;4995006;28;20276;-79
2022/09/25 06:53:11;;;;;;;14.90;5.82;;;12.70;99.90;;;;;;4995037;28;20168;-79
2022/09/25 06:55:37;;;;;;;8.98;5.13;;;12.80;99.90;;;;;;5010045;28;20227;-80
2022/09/25 06:58:05;;;;;;;9.77;5.18;;;12.80;99.90;;;;;;4995031;28;20279;-80
2022/09/25 07:00:31;;;;;;;6.57;4.38;;;12.70;99.90;;;;;;4995987;28;20369;-80
2022/09/25 07:05:43;;;;;;;6.65;5.35;;;12.70;99.90;;;;;;4995057;28;20278;-83
2022/09/25 07:08:15;;;;;;;6.65;4.45;;;12.80;99.90;;;;;;4994394;28;20532;-79
2022/09/25 07:10:47;;;;;;;7.90;4.88;;;12.90;99.90;;;;;;4994543;28;20169;-79
2022/09/25 07:13:12;;;;;;;5.75;4.10;;;13.00;99.90;;;;;;4995083;28;20658;-82
2022/09/25 07:15:38;;;;;;;7.13;3.92;;;13.00;99.90;;;;;;4994575;28;20193;-79
2022/09/25 07:18:04;;;;;;;12.43;4.60;;;12.90;99.90;;;;;;5009598;28;20213;-81
2022/09/25 07:20:31;;;;;;;12.48;5.00;;;13.00;99.90;;;;;;4993627;28;20214;-81
2022/09/25 07:23:02;;;;;;;9.55;4.38;;;13.00;99.90;;;;;;5010305;28;20184;-86
2022/09/25 07:25:30;;;;;;;7.95;4.30;;;13.20;99.90;;;;;;5009402;28;20185;-79
2022/09/25 07:27:56;;;;;;;10.73;3.65;;;13.30;99.90;;;;;;4994584;28;20176;-82
2022/09/25 07:30:22;;;;;;;8.20;3.97;;;13.40;99.90;;;;;;5009891;28;20166;-81
2022/09/25 07:32:48;;;;;;;9.88;4.07;;;13.40;99.90;;;;;;4994410;28;20175;-79
2022/09/25 07:35:14;;;;;;;9.98;3.78;;;13.50;99.90;;;;;;4994589;28;20205;-80
2022/09/25 07:37:39;;;;;;;7.65;3.70;;;13.50;99.90;;;;;;5009715;28;20213;-85
2022/09/25 07:40:05;;;;;;;6.32;3.30;;;13.70;99.90;;;;;;4994479;28;20175;-82
2022/09/25 07:42:32;;;;;;;8.20;3.00;;;13.60;99.90;;;;;;4994641;28;20205;-81
2022/09/25 07:44:57;;;;;;;6.80;3.05;;;13.50;99.90;;;;;;4994337;28;20185;-83
2022/09/25 07:47:23;;;;;;;12.25;3.13;;;13.60;99.90;;;;;;4994298;28;20165;-79
2022/09/25 07:49:48;;;;;;;18.13;3.00;;;13.70;99.90;;;;;;5009532;28;20209;-81
2022/09/25 07:52:14;;;;;;;7.85;2.97;;;13.80;99.90;;;;;;4994506;28;20165;-88
2022/09/25 07:54:39;;;;;;;4.53;2.92;;;14.00;99.90;;;;;;4994470;28;20197;-81
2022/09/25 07:57:05;;;;;;;5.75;3.20;;;14.00;99.90;;;;;;4993811;28;20197;-85
2022/09/25 07:59:33;;;;;;;14.73;2.47;;;14.20;99.90;;;;;;4993716;28;20236;-79
2022/09/25 08:01:59;;;;;;;10.45;2.38;;;14.40;99.90;;;;;;4993888;28;20227;-86
2022/09/25 08:04:24;;;;;;;5.30;2.13;;;14.50;99.90;;;;;;4993695;28;20189;-80
2022/09/25 08:06:50;;;;;;;7.90;1.85;;;14.60;99.90;;;;;;4993719;28;20628;-81
2022/09/25 08:09:15;;;;;;;7.80;1.60;;;14.60;99.90;;;;;;4994226;28;20169;-82
2022/09/25 08:11:41;;;;;;;5.97;1.63;;;14.40;99.90;;;;;;4993994;28;20589;-85
2022/09/25 08:14:07;;;;;;;9.48;1.90;;;14.30;99.90;;;;;;4992881;28;20196;-84
2022/09/25 08:16:32;;;;;;;4.45;1.38;;;14.30;99.90;;;;;;4992472;28;20686;-85
2022/09/25 08:18:58;;;;;;;7.63;1.58;;;14.20;99.90;;;;;;5008363;28;20216;-82
2022/09/25 08:21:24;;;;;;;4.15;1.55;;;14.20;99.90;;;;;;4992790;28;20261;-80
2022/09/25 08:23:52;;;;;;;8.57;1.88;;;14.20;99.90;;;;;;4992131;28;20231;-80
2022/09/25 08:26:20;;;;;;;7.80;1.73;;;14.30;99.90;;;;;;4991767;28;20157;-79
2022/09/25 08:28:46;;;;;;;4.32;1.60;;;14.50;99.90;;;;;;4993387;28;20165;-80
2022/09/25 08:31:13;;;;;;;4.95;1.33;;;14.50;99.90;;;;;;4993676;28;20172;-80
2022/09/25 08:33:42;;;;;;;5.55;1.30;;;14.60;99.90;;;;;;4993545;28;20755;-79
2022/09/25 08:36:08;;;;;;;7.03;1.30;;;14.70;99.90;;;;;;4991117;28;20574;-79
2022/09/25 08:38:34;;;;;;;4.32;1.20;;;14.70;99.90;;;;;;4993111;28;20303;-79
2022/09/25 08:41:22;;;;;;;5.90;1.35;;;14.60;99.90;;;;;;4993069;28;20620;-79
2022/09/25 08:44:18;;;;;;;6.97;1.45;;;15.00;99.90;;;;;;4993276;28;20198;-88
2022/09/25 08:50:09;;;;;;;10.18;1.55;;;15.20;99.90;;;;;;4974263;28;20317;-80
2022/09/25 08:52:36;;;;;;;5.50;0.90;;;15.30;99.90;;;;;;4993003;28;20184;-79
2022/09/25 08:55:02;;;;;;;4.43;1.20;;;15.30;99.90;;;;;;4993064;28;20181;-80
2022/09/25 08:57:36;;;;;;;1.90;0.98;;;15.40;99.90;;;;;;4993179;28;20238;-79
2022/09/25 09:00:13;;;;;;;7.30;0.77;;;15.40;99.90;;;;;;4993048;28;20161;-79
2022/09/25 09:02:46;;;;;;;4.95;1.23;;;15.50;99.90;;;;;;4992730;28;20175;-79
2022/09/25 09:05:38;;;;;;;4.22;1.50;;;15.70;99.90;;;;;;4993360;28;20219;-80
2022/09/25 09:08:16;;;;;;;2.55;0.95;;;15.80;99.90;;;;;;4992989;28;20200;-79
2022/09/25 09:11:01;;;;;;;6.72;1.58;;;15.90;99.90;;;;;;4993252;28;20526;-79
2022/09/25 09:13:51;;;;;;;5.40;0.80;;;15.80;99.90;;;;;;4993533;28;20166;-79
2022/09/25 09:16:25;;;;;;;4.82;1.15;;;15.90;99.90;;;;;;4997050;28;20168;-83
2022/09/25 09:18:51;;;;;;;3.60;0.68;;;16.00;99.90;;;;;;4998345;28;20204;-81
2022/09/25 09:21:37;;;;;;;2.88;0.80;;;15.90;99.90;;;;;;5002509;28;20157;-80
2022/09/25 09:24:18;;;;;;;3.22;1.50;;;16.00;99.90;;;;;;5016744;28;20199;-86
2022/09/25 09:26:59;;;;;;;3.33;1.20;;;16.10;99.90;;;;;;5010001;28;20184;-82
2022/09/25 09:29:31;;;;;;;6.75;0.93;;;16.00;99.90;;;;;;5009445;28;20232;-82
2022/09/25 09:32:19;;;;;;;3.95;0.70;;;16.10;99.90;;;;;;5019518;28;20176;-88
2022/09/25 09:35:22;;;;;;;5.38;1.00;;;15.90;99.90;;;;;;5018883;28;20204;-84
2022/09/25 09:38:13;;;;;;;2.50;1.13;;;16.10;99.90;;;;;;5014321;28;20220;-84
2022/09/25 09:41:07;;;;;;;4.10;1.90;;;16.30;99.90;;;;;;4996770;28;20220;-84
2022/09/25 09:43:58;;;;;;;5.07;0.93;;;16.30;99.90;;;;;;5000694;28;20288;-83
2022/09/25 09:46:33;;;;;;;7.00;1.17;;;16.30;99.90;;;;;;5006819;28;20178;-84
2022/09/25 09:49:11;;;;;;;8.27;1.17;;;16.10;99.90;;;;;;5001135;28;20177;-83
2022/09/25 09:51:59;;;;;;;5.78;0.80;;;16.40;99.90;;;;;;4992801;28;20210;-79
2022/09/25 09:54:46;;;;;;;4.82;1.00;;;16.60;99.90;;;;;;4996559;28;20200;-80
2022/09/25 09:57:20;;;;;;;11.93;0.98;;;16.50;99.90;;;;;;4993548;28;20230;-81
2022/09/25 09:59:52;;;;;;;3.63;0.80;;;16.40;99.90;;;;;;4978995;28;20174;-80
2022/09/25 10:02:39;;;;;;;1.92;0.80;;;16.40;99.90;;;;;;4979323;28;20698;-83
2022/09/25 10:05:23;;;;;;;4.78;0.80;;;16.60;99.90;;;;;;4975190;28;20244;-80
2022/09/25 10:07:50;;;;;;;4.18;0.88;;;16.80;99.90;;;;;;4974690;28;20173;-80
2022/09/25 10:10:18;;;;;;;2.85;1.08;;;16.60;99.90;;;;;;4975855;28;20260;-79
2022/09/25 10:12:54;;;;;;;1.55;0.70;;;16.80;99.90;;;;;;4975269;28;20177;-80
2022/09/25 10:15:31;;;;;;;1.55;0.70;;;17.00;99.90;;;;;;4974849;28;20280;-80
2022/09/25 10:17:59;;;;;;;0.85;0.70;;;17.20;99.90;;;;;;4988663;28;20296;-80
2022/09/25 10:20:35;;;;;;;6.28;1.20;;;17.60;99.90;;;;;;4975226;28;20174;-79
2022/09/25 10:23:03;;;;;;;2.13;0.73;;;17.60;99.90;;;;;;4975931;28;20204;-79
2022/09/25 10:25:37;;;;;;;1.38;0.90;;;17.70;99.90;;;;;;4974356;28;20591;-80
2022/09/25 10:28:33;;;;;;;2.42;0.90;;;18.00;99.90;;;;;;4975103;28;20261;-80
2022/09/25 10:31:01;;;;;;;3.47;1.20;;;18.40;99.90;;;;;;4975507;28;20177;-79
2022/09/25 10:33:29;;;;;;;3.53;1.00;;;18.20;99.90;;;;;;4975181;28;20637;-84
2022/09/25 10:35:56;;;;;;;5.20;0.88;;;18.20;99.90;;;;;;4974710;28;20225;-82
2022/09/25 10:38:33;;;;;;;1.33;0.90;;;18.00;99.90;;;;;;4982608;28;20215;-82
2022/09/25 10:41:10;;;;;;;1.50;1.05;;;18.40;99.90;;;;;;4994128;28;20169;-82
2022/09/25 10:43:53;;;;;;;1.40;1.23;;;18.60;99.90;;;;;;4993831;28;20200;-83
2022/09/25 10:52:49;;;;;;;2.00;0.88;;;18.70;99.90;;;;;;4914470;29;20175;-79
2022/09/25 10:55:29;;;;;;;1.80;1.00;;;18.20;99.90;;;;;;4962210;28;20296;-83
2022/09/25 10:58:08;;;;;;;3.78;1.50;;;18.00;99.90;;;;;;4984220;28;20220;-78
2022/09/25 11:00:42;;;;;;;1.45;1.15;;;18.10;99.90;;;;;;4993866;28;20168;-81
2022/09/25 11:03:19;;;;;;;7.22;0.65;;;18.20;99.90;;;;;;4993423;28;20208;-79
2022/09/25 11:05:51;;;;;;;2.08;0.90;;;18.40;99.90;;;;;;4991652;28;20173;-81
2022/09/25 11:08:18;;;;;;;1.98;0.80;;;18.10;99.90;;;;;;4992907;28;20181;-79
2022/09/25 11:11:02;;;;;;;3.90;0.90;;;18.40;99.90;;;;;;4993693;28;20180;-82
2022/09/25 11:13:45;;;;;;;1.00;0.77;;;18.50;99.90;;;;;;4990033;28;20161;-79
2022/09/25 11:16:11;;;;;;;1.08;0.73;;;18.90;99.90;;;;;;4990720;28;20283;-79
2022/09/25 11:18:44;;;;;;;9.65;1.27;;;19.00;99.90;;;;;;4993595;28;20216;-79
2022/09/25 11:21:26;;;;;;;6.65;0.70;;;19.10;99.90;;;;;;4993631;28;20165;-77
2022/09/25 11:23:58;;;;;;;3.95;1.00;;;19.10;99.90;;;;;;4991014;28;20201;-80
2022/09/25 11:26:31;;;;;;;2.88;1.00;;;19.30;99.90;;;;;;4991989;28;20244;-80
2022/09/25 11:29:08;;;;;;;6.63;0.90;;;19.20;99.90;;;;;;4991631;28;20177;-80
2022/09/25 11:31:40;;;;;;;2.20;0.98;;;19.10;99.90;;;;;;4990863;28;20201;-81
2022/09/25 11:34:37;;;;;;;2.88;0.65;;;18.60;99.90;;;;;;4992822;28;20185;-81
2022/09/25 11:37:21;;;;;;;1.85;0.65;;;18.30;99.90;;;;;;4992090;28;20264;-81
2022/09/25 11:42:45;;;;;;;1.83;0.93;;;17.70;99.90;;;;;;4992799;28;20176;-80
2022/09/25 11:45:47;;;;;;;5.53;0.80;;;17.70;99.90;;;;;;4990062;28;20698;-80
2022/09/25 11:48:54;;;;;;;4.40;1.10;;;17.90;99.90;;;;;;4978238;28;20576;-85
2022/09/25 11:51:29;;;;;;;1.95;0.75;;;18.40;99.90;;;;;;4970215;28;20207;-86
2022/09/25 11:54:18;;;;;;;3.83;0.95;;;18.50;99.90;;;;;;4992136;28;20554;-86
2022/09/25 11:57:05;;;;;;;5.30;0.90;;;18.60;99.90;;;;;;4993494;28;20166;-86
2022/09/25 11:59:58;;;;;;;7.50;0.90;;;18.50;99.90;;;;;;4991690;28;20181;-81
2022/09/25 12:03:18;;;;;;;13.55;1.20;;;18.40;99.90;;;;;;4991385;28;20173;-79
2022/09/25 12:06:02;;;;;;;4.15;1.52;;;18.50;99.90;;;;;;4951431;28;20198;-81
2022/09/25 12:09:06;;;;;;;6.45;1.10;;;18.50;99.90;;;;;;4984679;28;20662;-82
2022/09/25 12:12:00;;;;;;;2.35;0.85;;;18.90;99.90;;;;;;4990925;28;20177;-81
2022/09/25 12:14:32;;;;;;;2.78;0.70;;;18.90;99.90;;;;;;4992887;28;20248;-82
2022/09/25 12:17:11;;;;;;;8.77;1.10;;;18.70;99.90;;;;;;4992685;28;20655;-85
2022/09/25 12:20:04;;;;;;;1.15;0.60;;;18.70;99.90;;;;;;4992263;28;20164;-83
2022/09/25 12:23:03;;;;;;;1.00;0.70;;;18.70;99.90;;;;;;4992205;28;20197;-82
2022/09/25 12:25:46;;;;;;;1.17;0.50;;;19.10;99.90;;;;;;4992611;28;20259;-81
2022/09/25 12:28:30;;;;;;;3.00;0.60;;;19.20;99.90;;;;;;4990989;28;20185;-81
2022/09/25 12:31:17;;;;;;;1.48;0.73;;;19.40;99.90;;;;;;4991162;28;20271;-83
2022/09/25 12:34:14;;;;;;;4.25;0.98;;;19.50;99.90;;;;;;4992141;28;20263;-80
2022/09/25 12:36:42;;;;;;;1.10;0.50;;;19.30;99.90;;;;;;4991418;28;20694;-81
2022/09/25 12:39:31;;;;;;;1.48;0.63;;;19.00;99.90;;;;;;4992712;28;20267;-79
2022/09/25 12:41:57;;;;;;;1.70;0.70;;;18.90;99.90;;;;;;4992435;28;20176;-80
2022/09/25 12:44:28;;;;;;;1.08;0.45;;;18.40;99.90;;;;;;4993261;28;20186;-80
2022/09/25 12:47:08;;;;;;;1.77;0.88;;;17.80;99.90;;;;;;4992007;28;20173;-80
2022/09/25 12:49:39;;;;;;;3.47;0.60;;;17.50;99.90;;;;;;4994813;28;20367;-82
2022/09/25 12:52:13;;;;;;;1.92;0.80;;;17.70;99.90;;;;;;4999542;28;20163;-81
2022/09/25 12:54:51;;;;;;;1.50;0.63;;;17.90;99.90;;;;;;4999402;28;20185;-82
2022/09/25 12:57:30;;;;;;;2.88;0.77;;;17.80;99.90;;;;;;4998353;28;20235;-81
2022/09/25 13:00:04;;;;;;;1.48;0.60;;;17.70;99.90;;;;;;4999576;28;20164;-81
2022/09/25 13:02:35;;;;;;;2.80;0.70;;;17.70;99.90;;;;;;4999901;28;20200;-80
2022/09/25 13:05:16;;;;;;;1.42;0.52;;;18.10;99.90;;;;;;5000766;28;20193;-81
2022/09/25 13:07:48;;;;;;;3.03;0.70;;;18.20;99.90;;;;;;4999300;28;20169;-80
2022/09/25 13:10:31;;;;;;;0.70;0.50;;;18.50;99.90;;;;;;4998249;28;20216;-82
2022/09/25 13:13:01;;;;;;;2.00;1.00;;;18.90;99.90;;;;;;4998098;28;20169;-80
2022/09/25 13:15:31;;;;;;;2.13;0.73;;;18.60;99.90;;;;;;4999199;28;20187;-80
2022/09/25 13:17:58;;;;;;;2.45;0.60;;;18.40;99.90;;;;;;4999533;28;20204;-80
2022/09/25 13:20:30;;;;;;;3.95;0.77;;;18.30;99.90;;;;;;4999360;28;20176;-83
2022/09/25 13:23:07;;;;;;;0.70;0.70;;;18.40;99.90;;;;;;4999438;28;20185;-81
2022/09/25 13:26:10;;;;;;;0.80;0.70;;;18.40;99.90;;;;;;4999446;28;20193;-80
2022/09/25 13:28:40;;;;;;;1.98;0.88;;;18.20;99.90;;;;;;4999561;28;20161;-80
2022/09/25 13:31:20;;;;;;;0.75;0.60;;;18.20;99.90;;;;;;5000168;28;20538;-85
2022/09/25 13:33:59;;;;;;;2.85;0.50;;;18.30;99.90;;;;;;4999013;28;20728;-80
2022/09/25 13:36:25;;;;;;;1.45;0.70;;;18.40;99.90;;;;;;4999098;28;20189;-81